Queen Sapphire — 9V7564 — position and weather

sailwx.info

Track history (hours):
 
Tides and Currents Weather Stations Pressure Air Temp Water Temp Dewpoint Dewpoint Depression Visibility Wind Speed Wind Dir Waves Ship Positions

Queen Sapphire

Last reported at 2014-Nov-27 07:22 UTC. Time now 2014-Nov-27 13:05 UTC.
Position N 40°45' W 070°55'.

Length 200 m; draft 8.4 m.

Type: Cargo ship. MMSI: 564254000.

Date/timePositionNaut miles runAvg speedWind from/ knotsBaromVisibWave heightAir tempDewpointWater temp
2014-Nov-27 07:22N 40°45' W 070°55'910.6
2014-Nov-27 06:33N 40°50' W 071°04'10 9.6
2014-Nov-27 05:33N 40°56' W 071°14'10 9.6
2014-Nov-27 04:33N 41°03' W 071°23'8 8.1
2014-Nov-27 03:33N 41°11' W 071°26'1312.5
2014-Nov-27 02:34N 41°23' W 071°25'1312.8
2014-Nov-27 01:33N 41°35' W 071°18'1312.6
2014-Nov-27 00:33N 41°47' W 071°23'0 0.1
2014-Nov-26 23:33N 41°47' W 071°23'0 0.0
2014-Nov-26 22:33N 41°47' W 071°23'0 0.0
2014-Nov-26 21:33N 41°47' W 071°23'0 0.0
2014-Nov-26 20:33N 41°47' W 071°23'0 0.0
2014-Nov-26 19:27N 41°47' W 071°23'0 0.0
2014-Nov-26 18:33N 41°47' W 071°23'0 0.0
2014-Nov-26 17:33N 41°47' W 071°23'0 0.0
2014-Nov-26 16:33N 41°47' W 071°23'0 0.0
2014-Nov-26 15:33N 41°47' W 071°23'0 0.0
2014-Nov-26 14:33N 41°47' W 071°23'0 0.0
2014-Nov-26 13:33N 41°47' W 071°23'3 3.5
2014-Nov-26 12:33N 41°44' W 071°22'1313.4
2014-Nov-26 11:33N 41°31' W 071°21'12011.6
2014-Nov-26 01:13N 40°25' W 073°33'6 9.3
2014-Nov-26 00:33N 40°26' W 073°41'9 9.1
2014-Nov-25 23:32N 40°28' W 073°53'1111.8
2014-Nov-25 22:33N 40°37' W 074°03'4 3.6
2014-Nov-25 21:32N 40°40' W 074°05'0 0.0
2014-Nov-25 20:32N 40°40' W 074°05'0 0.0
2014-Nov-25 19:32N 40°40' W 074°05'0 0.0
2014-Nov-25 18:32N 40°40' W 074°05'0 0.0
2014-Nov-25 17:32N 40°40' W 074°05'0 0.0
2014-Nov-25 16:32N 40°40' W 074°05'0 0.0
2014-Nov-25 15:32N 40°40' W 074°05'0 0.0
2014-Nov-25 14:32N 40°40' W 074°05'0 0.0
2014-Nov-25 13:32N 40°40' W 074°05'0 0.0
2014-Nov-25 12:32N 40°40' W 074°05'0 0.0
2014-Nov-25 11:32N 40°40' W 074°05'0 0.0
2014-Nov-25 10:32N 40°40' W 074°05'0 0.0
2014-Nov-25 09:32N 40°40' W 074°05'0 0.0
2014-Nov-25 08:32N 40°40' W 074°05'0 0.0
2014-Nov-25 07:29N 40°40' W 074°05'0 0.0
2014-Nov-25 06:32N 40°40' W 074°05'0 0.0
2014-Nov-25 05:32N 40°40' W 074°05'0 0.0
2014-Nov-25 04:29N 40°40' W 074°05'0 0.0
2014-Nov-25 03:32N 40°40' W 074°05'0 0.0
2014-Nov-25 02:32N 40°40' W 074°05'0 0.0
2014-Nov-25 01:32N 40°40' W 074°05'0 0.0
2014-Nov-25 00:32N 40°40' W 074°05'0 0.0
2014-Nov-24 23:32N 40°40' W 074°05'2 2.4
2014-Nov-24 22:33N 40°38' W 074°03'1211.9
2014-Nov-24 21:33N 40°29' W 073°54'7 7.1
2014-Nov-24 20:34N 40°24' W 073°47'5 4.7
2014-Nov-24 19:33N 40°19' W 073°47'6 5.6
2014-Nov-24 18:33N 40°13' W 073°45'8 7.9
2014-Nov-24 17:32N 40°05' W 073°44'9 8.8
2014-Nov-24 16:33N 39°57' W 073°42'1514.3
2014-Nov-24 15:30N 39°42' W 073°42'1717.1
2014-Nov-24 14:30N 39°26' W 073°50'74 8.9
2014-Nov-24 06:08N 39°20' W 075°26'1016.5
2014-Nov-24 05:34N 39°28' W 075°34'7 6.8
2014-Nov-24 04:33N 39°33' W 075°39'10 8.9
2014-Nov-24 03:29N 39°32' W 075°51'2512.5
2014-Nov-24 01:30N 39°14' W 076°14'1010.4
2014-Nov-24 00:33N 39°11' W 076°26'6 6.4
2014-Nov-23 23:33N 39°15' W 076°32'0 0.0
2014-Nov-23 22:33N 39°15' W 076°32'0 0.0
2014-Nov-23 21:33N 39°15' W 076°32'0 0.0
2014-Nov-23 20:33N 39°15' W 076°32'0 0.0
2014-Nov-23 19:30N 39°15' W 076°32'0 0.0
2014-Nov-23 18:33N 39°15' W 076°32'0 0.0
2014-Nov-23 17:33N 39°15' W 076°32'0 0.0
2014-Nov-23 16:33N 39°15' W 076°32'0 0.0
2014-Nov-23 15:33N 39°15' W 076°32'0 0.0
2014-Nov-23 14:33N 39°15' W 076°32'0 0.0
2014-Nov-23 13:33N 39°15' W 076°32'0 0.0
2014-Nov-23 12:33N 39°15' W 076°32'0 0.0
2014-Nov-23 11:33N 39°15' W 076°32'0 0.0
2014-Nov-23 10:33N 39°15' W 076°32'0 0.0
2014-Nov-23 09:33N 39°15' W 076°32'0 0.0
2014-Nov-23 08:33N 39°15' W 076°32'0 0.0
2014-Nov-23 07:33N 39°15' W 076°32'1 0.7
2014-Nov-23 06:33N 39°14' W 076°32'9 9.4
2014-Nov-23 05:33N 39°09' W 076°22'1010.3
2014-Nov-23 04:33N 39°17' W 076°14'2311.2
2014-Nov-23 02:32N 39°32' W 075°51'6 6.6
2014-Nov-23 01:33N 39°33' W 075°43'7 7.5
2014-Nov-23 00:33N 39°35' W 075°34'9 8.6
2014-Nov-22 23:33N 39°43' W 075°30'1110.5
2014-Nov-22 22:31N 39°51' W 075°20'6 0.4
2014-Nov-22 09:32N 39°52' W 075°13'1010.3
2014-Nov-22 08:34N 39°48' W 075°25'1312.9
2014-Nov-22 07:33N 39°38' W 075°35'1212.3
2014-Nov-22 06:33N 39°26' W 075°32'1615.7
2014-Nov-22 05:33N 39°14' W 075°18'  
Track history (hours):
 
Tides and Currents Weather Stations Pressure Air Temp Water Temp Dewpoint Dewpoint Depression Visibility Wind Speed Wind Dir Waves Ship Positions

Queen Sapphire

Last reported at 2014-Nov-27 07:22 UTC. Time now 2014-Nov-27 13:05 UTC.
Position N 40°45' W 070°55'.

Length 200 m; draft 8.4 m.

Type: Cargo ship. MMSI: 564254000.

Date/timePositionNaut miles runAvg speedWind from/ knotsBaromVisibWave heightAir tempDewpointWater temp
2014-Nov-27 07:22N 40°45' W 070°55'910.6
2014-Nov-27 06:33N 40°50' W 071°04'10 9.6
2014-Nov-27 05:33N 40°56' W 071°14'10 9.6
2014-Nov-27 04:33N 41°03' W 071°23'8 8.1
2014-Nov-27 03:33N 41°11' W 071°26'1312.5
2014-Nov-27 02:34N 41°23' W 071°25'1312.8
2014-Nov-27 01:33N 41°35' W 071°18'1312.6
2014-Nov-27 00:33N 41°47' W 071°23'0 0.1
2014-Nov-26 23:33N 41°47' W 071°23'0 0.0
2014-Nov-26 22:33N 41°47' W 071°23'0 0.0
2014-Nov-26 21:33N 41°47' W 071°23'0 0.0
2014-Nov-26 20:33N 41°47' W 071°23'0 0.0
2014-Nov-26 19:27N 41°47' W 071°23'0 0.0
2014-Nov-26 18:33N 41°47' W 071°23'0 0.0
2014-Nov-26 17:33N 41°47' W 071°23'0 0.0
2014-Nov-26 16:33N 41°47' W 071°23'0 0.0
2014-Nov-26 15:33N 41°47' W 071°23'0 0.0
2014-Nov-26 14:33N 41°47' W 071°23'0 0.0
2014-Nov-26 13:33N 41°47' W 071°23'3 3.5
2014-Nov-26 12:33N 41°44' W 071°22'1313.4
2014-Nov-26 11:33N 41°31' W 071°21'12011.6
2014-Nov-26 01:13N 40°25' W 073°33'6 9.3
2014-Nov-26 00:33N 40°26' W 073°41'9 9.1
2014-Nov-25 23:32N 40°28' W 073°53'1111.8
2014-Nov-25 22:33N 40°37' W 074°03'4 3.6
2014-Nov-25 21:32N 40°40' W 074°05'0 0.0
2014-Nov-25 20:32N 40°40' W 074°05'0 0.0
2014-Nov-25 19:32N 40°40' W 074°05'0 0.0
2014-Nov-25 18:32N 40°40' W 074°05'0 0.0
2014-Nov-25 17:32N 40°40' W 074°05'0 0.0
2014-Nov-25 16:32N 40°40' W 074°05'0 0.0
2014-Nov-25 15:32N 40°40' W 074°05'0 0.0
2014-Nov-25 14:32N 40°40' W 074°05'0 0.0
2014-Nov-25 13:32N 40°40' W 074°05'0 0.0
2014-Nov-25 12:32N 40°40' W 074°05'0 0.0
2014-Nov-25 11:32N 40°40' W 074°05'0 0.0
2014-Nov-25 10:32N 40°40' W 074°05'0 0.0
2014-Nov-25 09:32N 40°40' W 074°05'0 0.0
2014-Nov-25 08:32N 40°40' W 074°05'0 0.0
2014-Nov-25 07:29N 40°40' W 074°05'0 0.0
2014-Nov-25 06:32N 40°40' W 074°05'0 0.0
2014-Nov-25 05:32N 40°40' W 074°05'0 0.0
2014-Nov-25 04:29N 40°40' W 074°05'0 0.0
2014-Nov-25 03:32N 40°40' W 074°05'0 0.0
2014-Nov-25 02:32N 40°40' W 074°05'0 0.0
2014-Nov-25 01:32N 40°40' W 074°05'0 0.0
2014-Nov-25 00:32N 40°40' W 074°05'0 0.0
2014-Nov-24 23:32N 40°40' W 074°05'2 2.4
2014-Nov-24 22:33N 40°38' W 074°03'1211.9
2014-Nov-24 21:33N 40°29' W 073°54'7 7.1
2014-Nov-24 20:34N 40°24' W 073°47'5 4.7
2014-Nov-24 19:33N 40°19' W 073°47'6 5.6
2014-Nov-24 18:33N 40°13' W 073°45'8 7.9
2014-Nov-24 17:32N 40°05' W 073°44'9 8.8
2014-Nov-24 16:33N 39°57' W 073°42'1514.3
2014-Nov-24 15:30N 39°42' W 073°42'1717.1
2014-Nov-24 14:30N 39°26' W 073°50'74 8.9
2014-Nov-24 06:08N 39°20' W 075°26'1016.5
2014-Nov-24 05:34N 39°28' W 075°34'7 6.8
2014-Nov-24 04:33N 39°33' W 075°39'10 8.9
2014-Nov-24 03:29N 39°32' W 075°51'2512.5
2014-Nov-24 01:30N 39°14' W 076°14'1010.4
2014-Nov-24 00:33N 39°11' W 076°26'6 6.4
2014-Nov-23 23:33N 39°15' W 076°32'0 0.0
2014-Nov-23 22:33N 39°15' W 076°32'0 0.0
2014-Nov-23 21:33N 39°15' W 076°32'0 0.0
2014-Nov-23 20:33N 39°15' W 076°32'0 0.0
2014-Nov-23 19:30N 39°15' W 076°32'0 0.0
2014-Nov-23 18:33N 39°15' W 076°32'0 0.0
2014-Nov-23 17:33N 39°15' W 076°32'0 0.0
2014-Nov-23 16:33N 39°15' W 076°32'0 0.0
2014-Nov-23 15:33N 39°15' W 076°32'0 0.0
2014-Nov-23 14:33N 39°15' W 076°32'0 0.0
2014-Nov-23 13:33N 39°15' W 076°32'0 0.0
2014-Nov-23 12:33N 39°15' W 076°32'0 0.0
2014-Nov-23 11:33N 39°15' W 076°32'0 0.0
2014-Nov-23 10:33N 39°15' W 076°32'0 0.0
2014-Nov-23 09:33N 39°15' W 076°32'0 0.0
2014-Nov-23 08:33N 39°15' W 076°32'0 0.0
2014-Nov-23 07:33N 39°15' W 076°32'1 0.7
2014-Nov-23 06:33N 39°14' W 076°32'9 9.4
2014-Nov-23 05:33N 39°09' W 076°22'1010.3
2014-Nov-23 04:33N 39°17' W 076°14'2311.2
2014-Nov-23 02:32N 39°32' W 075°51'6 6.6
2014-Nov-23 01:33N 39°33' W 075°43'7 7.5
2014-Nov-23 00:33N 39°35' W 075°34'9 8.6
2014-Nov-22 23:33N 39°43' W 075°30'1110.5
2014-Nov-22 22:31N 39°51' W 075°20'6 0.4
2014-Nov-22 09:32N 39°52' W 075°13'1010.3
2014-Nov-22 08:34N 39°48' W 075°25'1312.9
2014-Nov-22 07:33N 39°38' W 075°35'1212.3
2014-Nov-22 06:33N 39°26' W 075°32'1615.7
2014-Nov-22 05:33N 39°14' W 075°18'  

Dump ship's entire track history